sensor_id;sensor_type;location;lat;lon;timestamp;P1;durP1;ratioP1;P2;durP2;ratioP2
63801;SDS011;49949;43.060;25.624;2023-09-30T00:00:36;25.23;;;10.35;;
63801;SDS011;49949;43.060;25.624;2023-09-30T00:03:02;25.05;;;11.40;;
63801;SDS011;49949;43.060;25.624;2023-09-30T00:05:28;19.45;;;11.95;;
63801;SDS011;49949;43.060;25.624;2023-09-30T00:07:54;22.50;;;10.88;;
63801;SDS011;49949;43.060;25.624;2023-09-30T00:10:19;19.85;;;10.70;;
63801;SDS011;49949;43.060;25.624;2023-09-30T00:12:45;20.73;;;11.23;;
63801;SDS011;49949;43.060;25.624;2023-09-30T00:15:11;23.13;;;12.50;;
63801;SDS011;49949;43.060;25.624;2023-09-30T00:17:36;28.85;;;12.32;;
63801;SDS011;49949;43.060;25.624;2023-09-30T00:20:02;21.35;;;11.77;;
63801;SDS011;49949;43.060;25.624;2023-09-30T00:22:29;25.05;;;12.25;;
63801;SDS011;49949;43.060;25.624;2023-09-30T00:24:55;22.35;;;11.70;;
63801;SDS011;49949;43.060;25.624;2023-09-30T00:27:20;19.65;;;11.20;;
63801;SDS011;49949;43.060;25.624;2023-09-30T00:29:47;26.15;;;11.88;;
63801;SDS011;49949;43.060;25.624;2023-09-30T00:32:12;26.88;;;12.48;;
63801;SDS011;49949;43.060;25.624;2023-09-30T00:34:38;26.60;;;12.77;;
63801;SDS011;49949;43.060;25.624;2023-09-30T00:37:05;20.65;;;12.52;;
63801;SDS011;49949;43.060;25.624;2023-09-30T00:39:32;24.92;;;13.57;;
63801;SDS011;49949;43.060;25.624;2023-09-30T00:41:58;20.83;;;13.25;;
63801;SDS011;49949;43.060;25.624;2023-09-30T00:44:24;24.90;;;13.32;;
63801;SDS011;49949;43.060;25.624;2023-09-30T00:46:51;32.72;;;13.10;;
63801;SDS011;49949;43.060;25.624;2023-09-30T00:49:18;24.55;;;12.20;;
63801;SDS011;49949;43.060;25.624;2023-09-30T00:51:45;20.95;;;12.60;;
63801;SDS011;49949;43.060;25.624;2023-09-30T00:54:12;24.60;;;12.85;;
63801;SDS011;49949;43.060;25.624;2023-09-30T00:56:41;24.15;;;12.50;;
63801;SDS011;49949;43.060;25.624;2023-09-30T00:59:10;24.58;;;12.60;;
63801;SDS011;49949;43.060;25.624;2023-09-30T01:01:37;20.17;;;11.40;;
63801;SDS011;49949;43.060;25.624;2023-09-30T01:04:04;21.77;;;13.82;;
63801;SDS011;49949;43.060;25.624;2023-09-30T01:06:30;27.98;;;15.68;;
63801;SDS011;49949;43.060;25.624;2023-09-30T01:08:56;21.55;;;13.88;;
63801;SDS011;49949;43.060;25.624;2023-09-30T01:11:22;24.92;;;13.07;;
63801;SDS011;49949;43.060;25.624;2023-09-30T01:13:49;22.83;;;12.02;;
63801;SDS011;49949;43.060;25.624;2023-09-30T01:16:14;22.20;;;12.57;;
63801;SDS011;49949;43.060;25.624;2023-09-30T01:18:40;20.63;;;11.73;;
63801;SDS011;49949;43.060;25.624;2023-09-30T01:21:07;22.60;;;12.48;;
63801;SDS011;49949;43.060;25.624;2023-09-30T01:23:34;25.70;;;12.10;;
63801;SDS011;49949;43.060;25.624;2023-09-30T01:26:04;23.98;;;11.82;;
63801;SDS011;49949;43.060;25.624;2023-09-30T01:28:34;19.70;;;11.90;;
63801;SDS011;49949;43.060;25.624;2023-09-30T01:31:00;21.33;;;11.85;;
63801;SDS011;49949;43.060;25.624;2023-09-30T01:33:26;19.95;;;13.02;;
63801;SDS011;49949;43.060;25.624;2023-09-30T01:35:52;32.08;;;15.52;;
63801;SDS011;49949;43.060;25.624;2023-09-30T01:38:18;24.25;;;13.35;;
63801;SDS011;49949;43.060;25.624;2023-09-30T01:40:44;36.47;;;17.05;;
63801;SDS011;49949;43.060;25.624;2023-09-30T01:43:11;26.95;;;16.15;;
63801;SDS011;49949;43.060;25.624;2023-09-30T01:45:38;25.75;;;12.70;;
63801;SDS011;49949;43.060;25.624;2023-09-30T01:48:05;24.85;;;12.70;;
63801;SDS011;49949;43.060;25.624;2023-09-30T01:50:31;21.55;;;12.60;;
63801;SDS011;49949;43.060;25.624;2023-09-30T01:52:56;25.55;;;12.23;;
63801;SDS011;49949;43.060;25.624;2023-09-30T01:55:22;20.85;;;12.25;;
63801;SDS011;49949;43.060;25.624;2023-09-30T01:57:48;28.65;;;12.32;;
63801;SDS011;49949;43.060;25.624;2023-09-30T02:00:13;28.40;;;14.95;;
63801;SDS011;49949;43.060;25.624;2023-09-30T02:02:39;24.77;;;14.40;;
63801;SDS011;49949;43.060;25.624;2023-09-30T02:05:06;28.90;;;14.40;;
63801;SDS011;49949;43.060;25.624;2023-09-30T02:07:35;33.53;;;13.13;;
63801;SDS011;49949;43.060;25.624;2023-09-30T02:10:01;25.23;;;13.80;;
63801;SDS011;49949;43.060;25.624;2023-09-30T02:12:27;23.48;;;13.32;;
63801;SDS011;49949;43.060;25.624;2023-09-30T02:14:53;23.33;;;13.82;;
63801;SDS011;49949;43.060;25.624;2023-09-30T02:17:19;23.77;;;12.75;;
63801;SDS011;49949;43.060;25.624;2023-09-30T02:19:45;22.80;;;12.48;;
63801;SDS011;49949;43.060;25.624;2023-09-30T02:22:12;29.20;;;12.38;;
63801;SDS011;49949;43.060;25.624;2023-09-30T02:24:37;22.70;;;13.18;;
63801;SDS011;49949;43.060;25.624;2023-09-30T02:27:05;22.15;;;12.90;;
63801;SDS011;49949;43.060;25.624;2023-09-30T02:29:31;30.08;;;12.32;;
63801;SDS011;49949;43.060;25.624;2023-09-30T02:31:57;31.88;;;13.77;;
63801;SDS011;49949;43.060;25.624;2023-09-30T02:34:23;22.63;;;13.30;;
63801;SDS011;49949;43.060;25.624;2023-09-30T02:36:49;23.15;;;13.43;;
63801;SDS011;49949;43.060;25.624;2023-09-30T02:39:15;27.63;;;14.63;;
63801;SDS011;49949;43.060;25.624;2023-09-30T02:41:41;22.83;;;13.13;;
63801;SDS011;49949;43.060;25.624;2023-09-30T02:44:08;23.50;;;14.00;;
63801;SDS011;49949;43.060;25.624;2023-09-30T02:46:33;24.13;;;13.80;;
63801;SDS011;49949;43.060;25.624;2023-09-30T02:49:02;21.75;;;14.43;;
63801;SDS011;49949;43.060;25.624;2023-09-30T02:51:28;25.05;;;13.27;;
63801;SDS011;49949;43.060;25.624;2023-09-30T02:53:54;28.42;;;14.27;;
63801;SDS011;49949;43.060;25.624;2023-09-30T02:56:20;28.88;;;14.15;;
63801;SDS011;49949;43.060;25.624;2023-09-30T02:58:49;74.32;;;48.35;;
63801;SDS011;49949;43.060;25.624;2023-09-30T03:01:16;24.85;;;13.82;;
63801;SDS011;49949;43.060;25.624;2023-09-30T03:03:42;26.08;;;14.35;;
63801;SDS011;49949;43.060;25.624;2023-09-30T03:06:11;29.08;;;14.48;;
63801;SDS011;49949;43.060;25.624;2023-09-30T03:08:37;22.45;;;13.75;;
63801;SDS011;49949;43.060;25.624;2023-09-30T03:11:03;20.15;;;13.70;;
63801;SDS011;49949;43.060;25.624;2023-09-30T03:13:32;23.17;;;13.68;;
63801;SDS011;49949;43.060;25.624;2023-09-30T03:15:58;23.85;;;13.88;;
63801;SDS011;49949;43.060;25.624;2023-09-30T03:18:26;26.15;;;15.75;;
63801;SDS011;49949;43.060;25.624;2023-09-30T03:20:58;26.02;;;14.95;;
63801;SDS011;49949;43.060;25.624;2023-09-30T03:23:25;28.63;;;15.18;;
63801;SDS011;49949;43.060;25.624;2023-09-30T03:25:58;28.92;;;15.02;;
63801;SDS011;49949;43.060;25.624;2023-09-30T03:28:25;25.05;;;16.05;;
63801;SDS011;49949;43.060;25.624;2023-09-30T03:30:52;39.42;;;16.25;;
63801;SDS011;49949;43.060;25.624;2023-09-30T03:33:17;37.00;;;16.40;;
63801;SDS011;49949;43.060;25.624;2023-09-30T03:35:43;32.25;;;16.25;;
63801;SDS011;49949;43.060;25.624;2023-09-30T03:38:10;35.53;;;15.98;;
63801;SDS011;49949;43.060;25.624;2023-09-30T03:40:38;30.42;;;16.15;;
63801;SDS011;49949;43.060;25.624;2023-09-30T03:43:04;23.83;;;14.95;;
63801;SDS011;49949;43.060;25.624;2023-09-30T03:45:31;31.15;;;15.75;;
63801;SDS011;49949;43.060;25.624;2023-09-30T03:48:00;32.22;;;16.10;;
63801;SDS011;49949;43.060;25.624;2023-09-30T03:50:27;26.30;;;15.48;;
63801;SDS011;49949;43.060;25.624;2023-09-30T03:53:00;36.00;;;15.88;;
63801;SDS011;49949;43.060;25.624;2023-09-30T03:55:27;27.50;;;15.27;;
63801;SDS011;49949;43.060;25.624;2023-09-30T03:57:54;27.92;;;15.25;;
63801;SDS011;49949;43.060;25.624;2023-09-30T04:00:20;28.67;;;15.68;;
63801;SDS011;49949;43.060;25.624;2023-09-30T04:02:46;24.77;;;14.40;;
63801;SDS011;49949;43.060;25.624;2023-09-30T04:05:18;30.02;;;15.15;;
63801;SDS011;49949;43.060;25.624;2023-09-30T04:07:51;22.25;;;14.82;;
63801;SDS011;49949;43.060;25.624;2023-09-30T04:10:17;28.58;;;14.73;;
63801;SDS011;49949;43.060;25.624;2023-09-30T04:12:43;27.48;;;15.20;;
63801;SDS011;49949;43.060;25.624;2023-09-30T04:15:08;26.50;;;15.07;;
63801;SDS011;49949;43.060;25.624;2023-09-30T04:17:37;26.63;;;15.50;;
63801;SDS011;49949;43.060;25.624;2023-09-30T04:20:05;23.83;;;14.82;;
63801;SDS011;49949;43.060;25.624;2023-09-30T04:22:36;28.73;;;15.00;;
63801;SDS011;49949;43.060;25.624;2023-09-30T04:25:03;31.02;;;15.23;;
63801;SDS011;49949;43.060;25.624;2023-09-30T04:27:33;24.40;;;14.07;;
63801;SDS011;49949;43.060;25.624;2023-09-30T04:29:59;25.63;;;14.50;;
63801;SDS011;49949;43.060;25.624;2023-09-30T04:32:25;31.92;;;16.77;;
63801;SDS011;49949;43.060;25.624;2023-09-30T04:34:52;23.23;;;14.50;;
63801;SDS011;49949;43.060;25.624;2023-09-30T04:37:18;24.35;;;14.05;;
63801;SDS011;49949;43.060;25.624;2023-09-30T04:39:44;27.15;;;14.20;;
63801;SDS011;49949;43.060;25.624;2023-09-30T04:42:09;28.40;;;15.35;;
63801;SDS011;49949;43.060;25.624;2023-09-30T04:44:36;26.60;;;14.25;;
63801;SDS011;49949;43.060;25.624;2023-09-30T04:47:03;35.65;;;15.32;;
63801;SDS011;49949;43.060;25.624;2023-09-30T04:49:29;46.50;;;15.80;;
63801;SDS011;49949;43.060;25.624;2023-09-30T04:51:55;34.35;;;15.48;;
63801;SDS011;49949;43.060;25.624;2023-09-30T04:54:21;32.00;;;15.40;;
63801;SDS011;49949;43.060;25.624;2023-09-30T04:56:47;29.58;;;16.55;;
63801;SDS011;49949;43.060;25.624;2023-09-30T04:59:13;27.50;;;15.02;;
63801;SDS011;49949;43.060;25.624;2023-09-30T05:01:39;38.80;;;15.40;;
63801;SDS011;49949;43.060;25.624;2023-09-30T05:04:04;40.95;;;13.60;;
63801;SDS011;49949;43.060;25.624;2023-09-30T05:06:31;38.03;;;14.60;;
63801;SDS011;49949;43.060;25.624;2023-09-30T05:08:57;26.13;;;13.68;;
63801;SDS011;49949;43.060;25.624;2023-09-30T05:11:24;35.20;;;13.27;;
63801;SDS011;49949;43.060;25.624;2023-09-30T05:13:49;45.72;;;15.43;;
63801;SDS011;49949;43.060;25.624;2023-09-30T05:16:16;46.25;;;18.05;;
63801;SDS011;49949;43.060;25.624;2023-09-30T05:18:42;59.42;;;19.85;;
63801;SDS011;49949;43.060;25.624;2023-09-30T05:21:08;63.33;;;19.17;;
63801;SDS011;49949;43.060;25.624;2023-09-30T05:23:35;56.75;;;21.17;;
63801;SDS011;49949;43.060;25.624;2023-09-30T05:26:02;46.20;;;19.35;;
63801;SDS011;49949;43.060;25.624;2023-09-30T05:28:27;53.53;;;18.90;;
63801;SDS011;49949;43.060;25.624;2023-09-30T05:30:53;53.42;;;18.80;;
63801;SDS011;49949;43.060;25.624;2023-09-30T05:33:19;47.50;;;20.50;;
63801;SDS011;49949;43.060;25.624;2023-09-30T05:35:45;41.70;;;19.10;;
63801;SDS011;49949;43.060;25.624;2023-09-30T05:38:11;46.05;;;19.55;;
63801;SDS011;49949;43.060;25.624;2023-09-30T05:40:37;63.88;;;17.95;;
63801;SDS011;49949;43.060;25.624;2023-09-30T05:43:03;38.53;;;17.63;;
63801;SDS011;49949;43.060;25.624;2023-09-30T05:45:31;38.97;;;14.43;;
63801;SDS011;49949;43.060;25.624;2023-09-30T05:48:03;37.35;;;16.20;;
63801;SDS011;49949;43.060;25.624;2023-09-30T05:50:32;28.08;;;15.32;;
63801;SDS011;49949;43.060;25.624;2023-09-30T05:52:59;41.25;;;15.18;;
63801;SDS011;49949;43.060;25.624;2023-09-30T05:55:25;40.88;;;16.35;;
63801;SDS011;49949;43.060;25.624;2023-09-30T05:57:51;52.72;;;17.60;;
63801;SDS011;49949;43.060;25.624;2023-09-30T06:00:20;47.13;;;18.02;;
63801;SDS011;49949;43.060;25.624;2023-09-30T06:02:47;50.58;;;15.65;;
63801;SDS011;49949;43.060;25.624;2023-09-30T06:05:13;46.10;;;15.25;;
63801;SDS011;49949;43.060;25.624;2023-09-30T06:07:44;42.28;;;15.57;;
63801;SDS011;49949;43.060;25.624;2023-09-30T06:10:11;40.05;;;17.08;;
63801;SDS011;49949;43.060;25.624;2023-09-30T06:12:37;72.60;;;28.48;;
63801;SDS011;49949;43.060;25.624;2023-09-30T06:15:03;31.40;;;14.45;;
63801;SDS011;49949;43.060;25.624;2023-09-30T06:17:32;45.17;;;14.93;;
63801;SDS011;49949;43.060;25.624;2023-09-30T06:19:58;32.53;;;15.40;;
63801;SDS011;49949;43.060;25.624;2023-09-30T06:22:34;43.83;;;16.58;;
63801;SDS011;49949;43.060;25.624;2023-09-30T06:25:00;50.20;;;20.02;;
63801;SDS011;49949;43.060;25.624;2023-09-30T06:27:25;28.45;;;12.90;;
63801;SDS011;49949;43.060;25.624;2023-09-30T06:29:51;37.17;;;15.10;;
63801;SDS011;49949;43.060;25.624;2023-09-30T06:32:17;43.22;;;17.02;;
63801;SDS011;49949;43.060;25.624;2023-09-30T06:34:43;36.80;;;16.13;;
63801;SDS011;49949;43.060;25.624;2023-09-30T06:37:09;38.00;;;15.45;;
63801;SDS011;49949;43.060;25.624;2023-09-30T06:39:35;28.05;;;14.30;;
63801;SDS011;49949;43.060;25.624;2023-09-30T06:42:00;43.05;;;15.32;;
63801;SDS011;49949;43.060;25.624;2023-09-30T06:44:26;42.17;;;16.42;;
63801;SDS011;49949;43.060;25.624;2023-09-30T06:46:53;36.83;;;15.93;;
63801;SDS011;49949;43.060;25.624;2023-09-30T06:49:20;39.38;;;16.60;;
63801;SDS011;49949;43.060;25.624;2023-09-30T06:51:45;49.33;;;17.13;;
63801;SDS011;49949;43.060;25.624;2023-09-30T06:54:12;45.65;;;17.70;;
63801;SDS011;49949;43.060;25.624;2023-09-30T06:56:38;45.13;;;15.70;;
63801;SDS011;49949;43.060;25.624;2023-09-30T06:59:04;46.38;;;17.60;;
63801;SDS011;49949;43.060;25.624;2023-09-30T07:01:31;36.90;;;15.63;;
63801;SDS011;49949;43.060;25.624;2023-09-30T07:03:57;30.55;;;15.18;;
63801;SDS011;49949;43.060;25.624;2023-09-30T07:06:25;36.90;;;14.50;;
63801;SDS011;49949;43.060;25.624;2023-09-30T07:08:51;32.47;;;13.85;;
63801;SDS011;49949;43.060;25.624;2023-09-30T07:11:26;31.67;;;12.88;;
63801;SDS011;49949;43.060;25.624;2023-09-30T07:13:57;34.55;;;13.05;;
63801;SDS011;49949;43.060;25.624;2023-09-30T07:16:23;35.50;;;11.70;;
63801;SDS011;49949;43.060;25.624;2023-09-30T07:18:49;23.33;;;10.30;;
63801;SDS011;49949;43.060;25.624;2023-09-30T07:21:15;36.55;;;11.75;;
63801;SDS011;49949;43.060;25.624;2023-09-30T07:23:41;25.23;;;9.68;;
63801;SDS011;49949;43.060;25.624;2023-09-30T07:26:07;25.45;;;9.55;;
63801;SDS011;49949;43.060;25.624;2023-09-30T07:28:33;27.90;;;9.00;;
63801;SDS011;49949;43.060;25.624;2023-09-30T07:30:59;21.17;;;9.23;;
63801;SDS011;49949;43.060;25.624;2023-09-30T07:33:24;23.92;;;8.43;;
63801;SDS011;49949;43.060;25.624;2023-09-30T07:35:50;19.05;;;7.97;;
63801;SDS011;49949;43.060;25.624;2023-09-30T07:38:17;25.85;;;7.07;;
63801;SDS011;49949;43.060;25.624;2023-09-30T07:40:43;19.23;;;7.03;;
63801;SDS011;49949;43.060;25.624;2023-09-30T07:43:08;23.52;;;8.32;;
63801;SDS011;49949;43.060;25.624;2023-09-30T07:45:35;22.73;;;7.32;;
63801;SDS011;49949;43.060;25.624;2023-09-30T07:48:01;25.35;;;8.65;;
63801;SDS011;49949;43.060;25.624;2023-09-30T07:50:29;65.90;;;11.57;;
63801;SDS011;49949;43.060;25.624;2023-09-30T07:52:55;34.92;;;8.98;;
63801;SDS011;49949;43.060;25.624;2023-09-30T07:55:21;28.92;;;8.23;;
63801;SDS011;49949;43.060;25.624;2023-09-30T07:57:47;22.00;;;8.93;;
63801;SDS011;49949;43.060;25.624;2023-09-30T08:00:13;16.15;;;6.97;;
63801;SDS011;49949;43.060;25.624;2023-09-30T08:02:42;25.67;;;8.02;;
63801;SDS011;49949;43.060;25.624;2023-09-30T08:05:09;61.58;;;11.70;;
63801;SDS011;49949;43.060;25.624;2023-09-30T08:07:35;44.67;;;11.50;;
63801;SDS011;49949;43.060;25.624;2023-09-30T08:10:02;33.47;;;10.15;;
63801;SDS011;49949;43.060;25.624;2023-09-30T08:12:30;45.40;;;12.10;;
63801;SDS011;49949;43.060;25.624;2023-09-30T08:14:55;26.33;;;11.98;;
63801;SDS011;49949;43.060;25.624;2023-09-30T08:17:21;33.40;;;10.32;;
63801;SDS011;49949;43.060;25.624;2023-09-30T08:19:47;21.85;;;7.00;;
63801;SDS011;49949;43.060;25.624;2023-09-30T08:22:15;36.00;;;8.57;;
63801;SDS011;49949;43.060;25.624;2023-09-30T08:24:41;35.28;;;7.38;;
63801;SDS011;49949;43.060;25.624;2023-09-30T08:27:07;12.50;;;4.78;;
63801;SDS011;49949;43.060;25.624;2023-09-30T08:29:33;19.40;;;4.43;;
63801;SDS011;49949;43.060;25.624;2023-09-30T08:32:01;17.75;;;5.47;;
63801;SDS011;49949;43.060;25.624;2023-09-30T08:34:28;12.52;;;3.83;;
63801;SDS011;49949;43.060;25.624;2023-09-30T08:36:54;23.58;;;4.72;;
63801;SDS011;49949;43.060;25.624;2023-09-30T08:39:19;8.38;;;3.75;;
63801;SDS011;49949;43.060;25.624;2023-09-30T08:41:45;16.35;;;3.83;;
63801;SDS011;49949;43.060;25.624;2023-09-30T08:44:11;17.63;;;4.00;;
63801;SDS011;49949;43.060;25.624;2023-09-30T08:46:37;24.75;;;4.47;;
63801;SDS011;49949;43.060;25.624;2023-09-30T08:49:05;14.77;;;4.18;;
63801;SDS011;49949;43.060;25.624;2023-09-30T08:51:32;17.65;;;3.83;;
63801;SDS011;49949;43.060;25.624;2023-09-30T08:53:58;13.27;;;3.72;;
63801;SDS011;49949;43.060;25.624;2023-09-30T08:56:27;20.50;;;4.45;;
63801;SDS011;49949;43.060;25.624;2023-09-30T08:58:57;11.63;;;4.00;;
63801;SDS011;49949;43.060;25.624;2023-09-30T09:01:24;14.25;;;3.50;;
63801;SDS011;49949;43.060;25.624;2023-09-30T09:03:54;15.52;;;3.95;;
63801;SDS011;49949;43.060;25.624;2023-09-30T09:06:20;45.72;;;5.18;;
63801;SDS011;49949;43.060;25.624;2023-09-30T09:08:47;15.30;;;3.90;;
63801;SDS011;49949;43.060;25.624;2023-09-30T09:11:13;15.00;;;4.43;;
63801;SDS011;49949;43.060;25.624;2023-09-30T09:13:49;19.52;;;3.88;;
63801;SDS011;49949;43.060;25.624;2023-09-30T09:16:18;18.90;;;3.92;;
63801;SDS011;49949;43.060;25.624;2023-09-30T09:18:44;18.83;;;3.90;;
63801;SDS011;49949;43.060;25.624;2023-09-30T09:21:17;10.35;;;3.97;;
63801;SDS011;49949;43.060;25.624;2023-09-30T09:23:49;15.10;;;4.05;;
63801;SDS011;49949;43.060;25.624;2023-09-30T09:29:00;10.80;;;3.45;;
63801;SDS011;49949;43.060;25.624;2023-09-30T09:31:28;9.80;;;3.80;;
63801;SDS011;49949;43.060;25.624;2023-09-30T09:33:56;10.00;;;3.53;;
63801;SDS011;49949;43.060;25.624;2023-09-30T09:36:37;16.90;;;4.07;;
63801;SDS011;49949;43.060;25.624;2023-09-30T09:39:08;11.10;;;3.92;;
63801;SDS011;49949;43.060;25.624;2023-09-30T09:41:50;14.75;;;4.18;;
63801;SDS011;49949;43.060;25.624;2023-09-30T09:44:18;12.13;;;4.35;;
63801;SDS011;49949;43.060;25.624;2023-09-30T09:46:46;13.27;;;4.18;;
63801;SDS011;49949;43.060;25.624;2023-09-30T09:49:13;14.38;;;3.78;;
63801;SDS011;49949;43.060;25.624;2023-09-30T09:51:42;9.13;;;3.60;;
63801;SDS011;49949;43.060;25.624;2023-09-30T09:54:11;15.18;;;3.75;;
63801;SDS011;49949;43.060;25.624;2023-09-30T09:56:38;12.07;;;4.35;;
63801;SDS011;49949;43.060;25.624;2023-09-30T09:59:04;20.00;;;4.43;;
63801;SDS011;49949;43.060;25.624;2023-09-30T10:01:33;14.27;;;4.18;;
63801;SDS011;49949;43.060;25.624;2023-09-30T10:04:00;13.98;;;3.72;;
63801;SDS011;49949;43.060;25.624;2023-09-30T10:06:26;13.85;;;3.60;;
63801;SDS011;49949;43.060;25.624;2023-09-30T10:08:53;9.90;;;4.10;;
63801;SDS011;49949;43.060;25.624;2023-09-30T10:11:22;13.43;;;3.75;;
63801;SDS011;49949;43.060;25.624;2023-09-30T10:13:57;13.32;;;4.13;;
63801;SDS011;49949;43.060;25.624;2023-09-30T10:19:07;15.88;;;4.25;;
63801;SDS011;49949;43.060;25.624;2023-09-30T10:21:37;10.50;;;3.42;;
63801;SDS011;49949;43.060;25.624;2023-09-30T10:27:27;13.02;;;4.07;;
63801;SDS011;49949;43.060;25.624;2023-09-30T10:29:46;11.30;;;4.03;;
63801;SDS011;49949;43.060;25.624;2023-09-30T10:32:12;8.25;;;4.18;;
63801;SDS011;49949;43.060;25.624;2023-09-30T10:34:38;31.77;;;4.43;;
63801;SDS011;49949;43.060;25.624;2023-09-30T10:37:21;15.57;;;3.40;;
63801;SDS011;49949;43.060;25.624;2023-09-30T10:40:00;35.72;;;4.53;;
63801;SDS011;49949;43.060;25.624;2023-09-30T10:50:50;20.83;;;4.30;;
63801;SDS011;49949;43.060;25.624;2023-09-30T10:53:19;12.75;;;3.92;;
63801;SDS011;49949;43.060;25.624;2023-09-30T10:55:45;18.02;;;3.85;;
63801;SDS011;49949;43.060;25.624;2023-09-30T10:58:14;14.63;;;4.47;;
63801;SDS011;49949;43.060;25.624;2023-09-30T11:00:51;21.77;;;4.05;;
63801;SDS011;49949;43.060;25.624;2023-09-30T11:03:21;11.02;;;3.60;;
63801;SDS011;49949;43.060;25.624;2023-09-30T11:05:47;16.15;;;3.92;;
63801;SDS011;49949;43.060;25.624;2023-09-30T11:08:15;14.07;;;4.28;;
63801;SDS011;49949;43.060;25.624;2023-09-30T11:10:48;10.43;;;3.88;;
63801;SDS011;49949;43.060;25.624;2023-09-30T11:13:16;15.23;;;4.00;;
63801;SDS011;49949;43.060;25.624;2023-09-30T11:15:45;23.92;;;4.05;;
63801;SDS011;49949;43.060;25.624;2023-09-30T11:18:17;16.85;;;3.97;;
63801;SDS011;49949;43.060;25.624;2023-09-30T11:20:43;12.18;;;4.10;;
63801;SDS011;49949;43.060;25.624;2023-09-30T11:23:12;16.20;;;3.88;;
63801;SDS011;49949;43.060;25.624;2023-09-30T11:25:39;16.98;;;3.78;;
63801;SDS011;49949;43.060;25.624;2023-09-30T11:28:13;22.90;;;3.92;;
63801;SDS011;49949;43.060;25.624;2023-09-30T11:30:52;29.95;;;5.50;;
63801;SDS011;49949;43.060;25.624;2023-09-30T11:33:25;10.40;;;4.43;;
63801;SDS011;49949;43.060;25.624;2023-09-30T11:38:26;6.65;;;3.83;;
63801;SDS011;49949;43.060;25.624;2023-09-30T11:43:25;17.77;;;4.20;;
63801;SDS011;49949;43.060;25.624;2023-09-30T11:45:51;14.35;;;3.65;;
63801;SDS011;49949;43.060;25.624;2023-09-30T11:48:17;16.13;;;4.25;;
63801;SDS011;49949;43.060;25.624;2023-09-30T11:50:48;12.25;;;3.92;;
63801;SDS011;49949;43.060;25.624;2023-09-30T11:53:15;9.15;;;4.05;;
63801;SDS011;49949;43.060;25.624;2023-09-30T11:55:41;10.40;;;4.20;;
63801;SDS011;49949;43.060;25.624;2023-09-30T11:58:07;9.55;;;3.80;;
63801;SDS011;49949;43.060;25.624;2023-09-30T12:00:34;15.05;;;4.25;;
63801;SDS011;49949;43.060;25.624;2023-09-30T12:03:00;15.18;;;3.65;;
63801;SDS011;49949;43.060;25.624;2023-09-30T12:05:26;15.10;;;3.78;;
63801;SDS011;49949;43.060;25.624;2023-09-30T12:07:54;14.75;;;4.40;;
63801;SDS011;49949;43.060;25.624;2023-09-30T12:10:19;10.25;;;4.10;;
63801;SDS011;49949;43.060;25.624;2023-09-30T12:12:45;16.85;;;4.07;;
63801;SDS011;49949;43.060;25.624;2023-09-30T12:15:11;14.05;;;3.50;;
63801;SDS011;49949;43.060;25.624;2023-09-30T12:17:36;7.90;;;3.90;;
63801;SDS011;49949;43.060;25.624;2023-09-30T12:20:04;15.00;;;3.97;;
63801;SDS011;49949;43.060;25.624;2023-09-30T12:22:31;8.95;;;4.15;;
63801;SDS011;49949;43.060;25.624;2023-09-30T12:24:57;8.57;;;3.72;;
63801;SDS011;49949;43.060;25.624;2023-09-30T12:27:23;13.23;;;4.00;;
63801;SDS011;49949;43.060;25.624;2023-09-30T12:29:49;16.15;;;4.38;;
63801;SDS011;49949;43.060;25.624;2023-09-30T12:32:15;9.63;;;3.65;;
63801;SDS011;49949;43.060;25.624;2023-09-30T12:34:41;12.35;;;3.72;;
63801;SDS011;49949;43.060;25.624;2023-09-30T12:37:07;15.48;;;4.18;;
63801;SDS011;49949;43.060;25.624;2023-09-30T12:39:32;14.68;;;3.38;;
63801;SDS011;49949;43.060;25.624;2023-09-30T12:41:58;12.57;;;3.33;;
63801;SDS011;49949;43.060;25.624;2023-09-30T12:44:24;8.40;;;3.80;;
63801;SDS011;49949;43.060;25.624;2023-09-30T12:46:50;9.15;;;3.70;;
63801;SDS011;49949;43.060;25.624;2023-09-30T12:49:15;68.68;;;5.88;;
63801;SDS011;49949;43.060;25.624;2023-09-30T12:51:42;40.70;;;6.07;;
63801;SDS011;49949;43.060;25.624;2023-09-30T12:54:07;21.80;;;4.63;;
63801;SDS011;49949;43.060;25.624;2023-09-30T12:56:34;13.70;;;3.85;;
63801;SDS011;49949;43.060;25.624;2023-09-30T12:59:00;22.20;;;4.20;;
63801;SDS011;49949;43.060;25.624;2023-09-30T13:01:25;18.85;;;3.83;;
63801;SDS011;49949;43.060;25.624;2023-09-30T13:03:53;8.05;;;3.53;;
63801;SDS011;49949;43.060;25.624;2023-09-30T13:06:19;24.25;;;4.47;;
63801;SDS011;49949;43.060;25.624;2023-09-30T13:08:45;17.73;;;3.90;;
63801;SDS011;49949;43.060;25.624;2023-09-30T13:11:11;21.20;;;4.18;;
63801;SDS011;49949;43.060;25.624;2023-09-30T13:13:36;8.45;;;3.80;;
63801;SDS011;49949;43.060;25.624;2023-09-30T13:16:03;18.40;;;4.50;;
63801;SDS011;49949;43.060;25.624;2023-09-30T13:18:35;10.43;;;3.60;;
63801;SDS011;49949;43.060;25.624;2023-09-30T13:21:01;11.75;;;3.80;;
63801;SDS011;49949;43.060;25.624;2023-09-30T13:23:29;8.00;;;2.95;;
63801;SDS011;49949;43.060;25.624;2023-09-30T13:25:55;15.65;;;3.90;;
63801;SDS011;49949;43.060;25.624;2023-09-30T13:28:21;17.15;;;4.22;;
63801;SDS011;49949;43.060;25.624;2023-09-30T13:30:46;20.88;;;3.72;;
63801;SDS011;49949;43.060;25.624;2023-09-30T13:33:13;16.38;;;4.10;;
63801;SDS011;49949;43.060;25.624;2023-09-30T13:35:38;25.17;;;4.40;;
63801;SDS011;49949;43.060;25.624;2023-09-30T13:38:04;36.15;;;4.70;;
63801;SDS011;49949;43.060;25.624;2023-09-30T13:40:30;15.30;;;4.25;;
63801;SDS011;49949;43.060;25.624;2023-09-30T13:42:56;25.48;;;4.85;;
63801;SDS011;49949;43.060;25.624;2023-09-30T13:45:23;12.70;;;3.83;;
63801;SDS011;49949;43.060;25.624;2023-09-30T13:47:49;15.05;;;4.60;;
63801;SDS011;49949;43.060;25.624;2023-09-30T13:50:15;15.63;;;4.53;;
63801;SDS011;49949;43.060;25.624;2023-09-30T13:52:41;22.65;;;4.30;;
63801;SDS011;49949;43.060;25.624;2023-09-30T13:55:07;13.68;;;4.35;;
63801;SDS011;49949;43.060;25.624;2023-09-30T13:57:33;17.10;;;4.50;;
63801;SDS011;49949;43.060;25.624;2023-09-30T14:00:00;18.13;;;4.20;;
63801;SDS011;49949;43.060;25.624;2023-09-30T14:02:26;13.85;;;4.28;;
63801;SDS011;49949;43.060;25.624;2023-09-30T14:04:52;17.80;;;4.18;;
63801;SDS011;49949;43.060;25.624;2023-09-30T14:07:18;7.03;;;3.80;;
63801;SDS011;49949;43.060;25.624;2023-09-30T14:09:44;11.15;;;4.47;;
63801;SDS011;49949;43.060;25.624;2023-09-30T14:12:10;13.00;;;3.60;;
63801;SDS011;49949;43.060;25.624;2023-09-30T14:14:35;10.48;;;4.03;;
63801;SDS011;49949;43.060;25.624;2023-09-30T14:17:01;16.60;;;4.60;;
63801;SDS011;49949;43.060;25.624;2023-09-30T14:19:35;17.50;;;4.72;;
63801;SDS011;49949;43.060;25.624;2023-09-30T14:22:02;18.02;;;5.35;;
63801;SDS011;49949;43.060;25.624;2023-09-30T14:24:29;10.13;;;4.38;;
63801;SDS011;49949;43.060;25.624;2023-09-30T14:26:56;16.40;;;4.65;;
63801;SDS011;49949;43.060;25.624;2023-09-30T14:29:21;12.15;;;4.43;;
63801;SDS011;49949;43.060;25.624;2023-09-30T14:31:47;20.83;;;5.35;;
63801;SDS011;49949;43.060;25.624;2023-09-30T14:34:12;12.23;;;4.93;;
63801;SDS011;49949;43.060;25.624;2023-09-30T14:36:40;13.10;;;4.72;;